createdAt,value
2022-10-01T00:00:11.359Z,13.60
2022-10-01T00:00:42.149Z,10.50
2022-10-01T00:01:13.006Z,12.90
2022-10-01T00:01:43.936Z,11.00
2022-10-01T00:02:14.749Z,11.20
2022-10-01T00:02:45.613Z,9.10
2022-10-01T00:03:16.521Z,16.30
2022-10-01T00:03:47.320Z,11.20
2022-10-01T00:04:18.159Z,11.50
2022-10-01T00:04:48.939Z,11.60
2022-10-01T00:05:19.738Z,9.60
2022-10-01T00:05:50.518Z,12.50
2022-10-01T00:06:21.289Z,10.40
2022-10-01T00:06:52.067Z,10.00
2022-10-01T00:07:22.851Z,11.90
2022-10-01T00:07:53.609Z,13.00
2022-10-01T00:08:24.402Z,10.80
2022-10-01T00:08:55.189Z,10.10
2022-10-01T00:09:25.949Z,11.30
2022-10-01T00:09:56.726Z,12.00
2022-10-01T00:10:27.527Z,12.70
2022-10-01T00:10:58.329Z,9.60
2022-10-01T00:11:29.125Z,12.50
2022-10-01T00:11:59.889Z,11.40
2022-10-01T00:12:30.707Z,11.20
2022-10-01T00:13:01.480Z,10.20
2022-10-01T00:13:32.270Z,9.30
2022-10-01T00:14:03.061Z,12.30
2022-10-01T00:14:33.896Z,11.00
2022-10-01T00:15:06.239Z,12.00
2022-10-01T00:15:37.512Z,11.20
2022-10-01T00:16:08.362Z,10.90
2022-10-01T00:16:39.225Z,11.30
2022-10-01T00:17:10.033Z,11.80
2022-10-01T00:17:40.842Z,14.40
2022-10-01T00:18:11.611Z,10.40
2022-10-01T00:18:42.405Z,8.70
2022-10-01T00:19:13.160Z,9.60
2022-10-01T00:19:43.946Z,10.70
2022-10-01T00:20:14.933Z,10.00
2022-10-01T00:20:45.700Z,10.80
2022-10-01T00:21:16.458Z,22.30
2022-10-01T00:21:47.244Z,11.00
2022-10-01T00:22:18.055Z,13.00
2022-10-01T00:22:48.852Z,11.30
2022-10-01T00:23:19.622Z,13.40
2022-10-01T00:23:50.423Z,11.40
2022-10-01T00:24:21.204Z,8.90
2022-10-01T00:24:52.018Z,9.30
2022-10-01T00:25:22.783Z,9.40
2022-10-01T00:25:53.549Z,10.50
2022-10-01T00:26:24.296Z,11.50
2022-10-01T00:26:55.085Z,10.80
2022-10-01T00:27:25.863Z,13.90
2022-10-01T00:27:56.632Z,10.80
2022-10-01T00:28:27.494Z,11.60
2022-10-01T00:28:58.275Z,9.60
2022-10-01T00:29:29.042Z,8.90
2022-10-01T00:29:59.835Z,10.60
2022-10-01T00:30:30.622Z,10.50
2022-10-01T00:31:01.431Z,11.80
2022-10-01T00:31:32.591Z,9.50
2022-10-01T00:32:03.817Z,11.80
2022-10-01T00:32:34.674Z,7.60
2022-10-01T00:33:05.444Z,11.40
2022-10-01T00:33:36.221Z,11.50
2022-10-01T00:34:07.007Z,12.80
2022-10-01T00:34:37.806Z,8.70
2022-10-01T00:35:08.605Z,8.50
2022-10-01T00:35:39.453Z,9.00
2022-10-01T00:36:10.297Z,9.90
2022-10-01T00:36:41.094Z,9.10
2022-10-01T00:37:11.901Z,9.20
2022-10-01T00:37:42.697Z,10.90
2022-10-01T00:38:13.474Z,8.10
2022-10-01T00:38:44.305Z,8.00
2022-10-01T00:39:15.127Z,10.60
2022-10-01T00:39:45.923Z,7.70
2022-10-01T00:40:16.738Z,10.00
2022-10-01T00:40:47.545Z,8.50
2022-10-01T00:41:18.346Z,9.20
2022-10-01T00:41:49.127Z,9.80
2022-10-01T00:42:19.943Z,9.00
2022-10-01T00:42:50.731Z,9.20
2022-10-01T00:43:21.515Z,8.10
2022-10-01T00:43:52.287Z,12.40
2022-10-01T00:44:23.052Z,8.30
2022-10-01T00:44:53.806Z,7.00
2022-10-01T00:45:24.556Z,7.30
2022-10-01T00:45:55.411Z,8.50
2022-10-01T00:46:26.187Z,11.70
2022-10-01T00:46:56.997Z,11.30
2022-10-01T00:47:27.798Z,7.50
2022-10-01T00:47:58.599Z,11.20
2022-10-01T00:48:29.389Z,8.10
2022-10-01T00:49:00.217Z,7.70
2022-10-01T00:49:30.979Z,8.50
2022-10-01T00:50:01.756Z,9.20
2022-10-01T00:50:32.507Z,8.20
2022-10-01T00:51:03.290Z,8.20
2022-10-01T00:51:34.449Z,7.40
2022-10-01T00:52:05.404Z,9.10
2022-10-01T00:52:36.191Z,9.80
2022-10-01T00:53:06.935Z,8.90
2022-10-01T00:53:37.691Z,8.00
2022-10-01T00:54:08.445Z,7.40
2022-10-01T00:54:39.251Z,9.00
2022-10-01T00:55:10.046Z,8.10
2022-10-01T00:55:40.821Z,8.40
2022-10-01T00:56:11.597Z,8.40
2022-10-01T00:56:42.393Z,5.90
2022-10-01T00:57:13.261Z,8.30
2022-10-01T00:57:44.041Z,7.10
2022-10-01T00:58:14.830Z,7.10
2022-10-01T00:58:45.600Z,6.80
2022-10-01T00:59:16.391Z,7.70
2022-10-01T00:59:47.170Z,10.90
2022-10-01T01:00:17.960Z,7.00
2022-10-01T01:00:48.755Z,6.70
2022-10-01T01:01:19.589Z,6.20
2022-10-01T01:01:50.489Z,8.40
2022-10-01T01:02:21.381Z,7.40
2022-10-01T01:02:52.204Z,6.30
2022-10-01T01:03:22.974Z,6.00
2022-10-01T01:03:53.761Z,8.30
2022-10-01T01:04:24.540Z,11.00
2022-10-01T01:04:55.335Z,8.10
2022-10-01T01:05:26.111Z,7.80
2022-10-01T01:05:56.892Z,8.10
2022-10-01T01:06:27.723Z,8.80
2022-10-01T01:06:58.472Z,8.50
2022-10-01T01:07:29.273Z,8.50
2022-10-01T01:08:00.052Z,10.50
2022-10-01T01:08:30.812Z,6.60
2022-10-01T01:09:01.610Z,6.80
2022-10-01T01:09:32.383Z,7.30
2022-10-01T01:10:03.191Z,6.50
2022-10-01T01:10:33.964Z,9.30
2022-10-01T01:11:04.741Z,6.50
2022-10-01T01:11:35.838Z,10.10
2022-10-01T01:12:06.837Z,8.00
2022-10-01T01:12:37.742Z,6.90
2022-10-01T01:13:08.563Z,7.50
2022-10-01T01:13:39.364Z,7.50
2022-10-01T01:14:10.167Z,8.80
2022-10-01T01:14:40.979Z,7.20
2022-10-01T01:15:11.754Z,8.10
2022-10-01T01:15:42.566Z,8.00
2022-10-01T01:16:13.395Z,7.30
2022-10-01T01:16:44.220Z,7.00
2022-10-01T01:17:14.985Z,6.50
2022-10-01T01:17:45.756Z,6.10
2022-10-01T01:18:16.548Z,8.40
2022-10-01T01:18:47.303Z,6.50
2022-10-01T01:19:18.069Z,7.20
2022-10-01T01:19:48.844Z,6.10
2022-10-01T01:20:19.684Z,7.50
2022-10-01T01:20:50.471Z,6.30
2022-10-01T01:21:21.235Z,7.10
2022-10-01T01:21:52.034Z,9.30
2022-10-01T01:22:22.838Z,6.00
2022-10-01T01:22:53.661Z,6.00
2022-10-01T01:23:24.454Z,7.90
2022-10-01T01:23:55.266Z,7.00
2022-10-01T01:24:26.065Z,5.50
2022-10-01T01:24:56.854Z,5.60
2022-10-01T01:25:27.617Z,7.20
2022-10-01T01:25:58.426Z,5.70
2022-10-01T01:26:29.207Z,5.00
2022-10-01T01:27:00.014Z,8.80
2022-10-01T01:27:30.791Z,5.10
2022-10-01T01:28:01.653Z,5.00
2022-10-01T01:28:32.450Z,5.90
2022-10-01T01:29:03.257Z,6.10
2022-10-01T01:29:34.047Z,6.30
2022-10-01T01:30:04.828Z,7.30
2022-10-01T01:30:35.658Z,7.20
2022-10-01T01:31:06.495Z,5.80
2022-10-01T01:31:37.647Z,6.60
2022-10-01T01:32:12.698Z,8.40
2022-10-01T01:32:41.298Z,6.50
2022-10-01T01:33:12.109Z,6.30
2022-10-01T01:33:42.916Z,6.00
2022-10-01T01:34:13.686Z,6.20
2022-10-01T01:34:44.477Z,5.80
2022-10-01T01:35:15.247Z,6.80
2022-10-01T01:35:46.062Z,6.50
2022-10-01T01:36:16.885Z,6.40
2022-10-01T01:36:47.691Z,5.50
2022-10-01T01:37:18.462Z,4.90
2022-10-01T01:37:49.210Z,7.60
2022-10-01T01:38:19.997Z,8.50
2022-10-01T01:38:50.808Z,7.80
2022-10-01T01:39:21.599Z,7.10
2022-10-01T01:39:52.369Z,7.50
2022-10-01T01:40:23.214Z,5.50
2022-10-01T01:40:54.001Z,6.60
2022-10-01T01:41:24.788Z,6.60
2022-10-01T01:41:55.648Z,7.90
2022-10-01T01:42:26.455Z,4.90
2022-10-01T01:42:57.231Z,6.50
2022-10-01T01:43:28.039Z,5.40
2022-10-01T01:43:58.802Z,6.80
2022-10-01T01:44:29.570Z,7.10
2022-10-01T01:45:00.318Z,7.90
2022-10-01T01:45:31.170Z,5.60
2022-10-01T01:46:01.980Z,5.20
2022-10-01T01:46:32.809Z,5.40
2022-10-01T01:47:03.599Z,5.90
2022-10-01T01:47:34.360Z,6.10
2022-10-01T01:48:05.150Z,7.70
2022-10-01T01:48:35.925Z,4.60
2022-10-01T01:49:06.715Z,5.00
2022-10-01T01:49:37.493Z,7.30
2022-10-01T01:50:08.309Z,9.40
2022-10-01T01:50:39.110Z,8.60
2022-10-01T01:51:09.908Z,4.40
2022-10-01T01:51:40.651Z,8.10
2022-10-01T01:52:11.466Z,7.80
2022-10-01T01:52:42.280Z,6.90
2022-10-01T01:53:13.043Z,5.70
2022-10-01T01:53:43.821Z,8.10
2022-10-01T01:54:14.647Z,5.90
2022-10-01T01:54:45.412Z,6.90
2022-10-01T01:55:16.221Z,7.60
2022-10-01T01:55:47.022Z,6.00
2022-10-01T01:56:17.826Z,5.90
2022-10-01T01:56:48.593Z,6.30
2022-10-01T01:57:19.422Z,5.40
2022-10-01T01:57:50.235Z,7.30
2022-10-01T01:58:21.005Z,8.00
2022-10-01T01:58:51.800Z,5.60
2022-10-01T01:59:22.646Z,5.40
2022-10-01T01:59:53.444Z,5.50
2022-10-01T02:00:24.223Z,5.60
2022-10-01T02:00:55.041Z,5.90
2022-10-01T02:01:25.929Z,5.60
2022-10-01T02:01:56.842Z,5.10
2022-10-01T02:02:27.724Z,5.70
2022-10-01T02:02:58.587Z,4.80
2022-10-01T02:03:29.367Z,7.70
2022-10-01T02:04:00.153Z,4.20
2022-10-01T02:04:30.951Z,6.00
2022-10-01T02:05:01.762Z,6.40
2022-10-01T02:05:32.551Z,6.00
2022-10-01T02:06:03.325Z,4.80
2022-10-01T02:06:34.123Z,4.90
2022-10-01T02:07:04.931Z,9.50
2022-10-01T02:07:35.704Z,6.20
2022-10-01T02:08:06.486Z,6.40
2022-10-01T02:08:37.248Z,6.30
2022-10-01T02:09:08.023Z,5.80
2022-10-01T02:09:38.810Z,6.60
2022-10-01T02:10:09.632Z,6.90
2022-10-01T02:10:40.402Z,6.00
2022-10-01T02:11:11.194Z,5.20
2022-10-01T02:11:41.948Z,6.90
2022-10-01T02:12:12.726Z,5.00
2022-10-01T02:12:43.483Z,3.90
2022-10-01T02:13:14.267Z,5.70
2022-10-01T02:13:45.041Z,4.40
2022-10-01T02:14:15.815Z,4.60
2022-10-01T02:14:46.567Z,6.50
2022-10-01T02:15:17.400Z,5.80
2022-10-01T02:15:48.216Z,6.80
2022-10-01T02:16:19.208Z,5.10
2022-10-01T02:16:50.096Z,4.80
2022-10-01T02:17:20.874Z,5.40
2022-10-01T02:17:51.647Z,4.90
2022-10-01T02:18:22.416Z,5.50
2022-10-01T02:18:53.186Z,4.30
2022-10-01T02:19:23.995Z,6.00
2022-10-01T02:19:54.791Z,6.00
2022-10-01T02:20:25.560Z,5.20
2022-10-01T02:20:56.344Z,7.90
2022-10-01T02:21:27.119Z,7.20
2022-10-01T02:21:57.919Z,5.70
2022-10-01T02:22:28.699Z,4.60
2022-10-01T02:22:59.475Z,6.60
2022-10-01T02:23:30.237Z,11.00
2022-10-01T02:24:01.020Z,4.10
2022-10-01T02:24:31.789Z,4.40
2022-10-01T02:25:02.579Z,5.10
2022-10-01T02:25:33.326Z,6.10
2022-10-01T02:26:04.149Z,4.20
2022-10-01T02:26:34.929Z,6.10
2022-10-01T02:27:05.709Z,5.90
2022-10-01T02:27:36.480Z,5.00
2022-10-01T02:28:07.308Z,4.00
2022-10-01T02:28:38.109Z,6.40
2022-10-01T02:29:08.868Z,7.10
2022-10-01T02:29:39.644Z,8.20
2022-10-01T02:30:10.399Z,4.00
2022-10-01T02:30:41.160Z,6.50
2022-10-01T02:31:12.003Z,4.50
2022-10-01T02:31:42.848Z,6.70
2022-10-01T02:32:13.700Z,5.40
2022-10-01T02:32:44.450Z,7.10
2022-10-01T02:33:15.230Z,5.80
2022-10-01T02:33:45.982Z,6.10
2022-10-01T02:34:20.122Z,5.80
2022-10-01T02:34:48.130Z,9.20
2022-10-01T02:35:18.912Z,6.50
2022-10-01T02:35:49.692Z,6.60
2022-10-01T02:36:20.479Z,6.10
2022-10-01T02:36:51.235Z,4.00
2022-10-01T02:37:22.021Z,7.50
2022-10-01T02:37:52.771Z,6.30
2022-10-01T02:38:23.526Z,8.70
2022-10-01T02:38:54.299Z,5.00
2022-10-01T02:39:25.068Z,7.80
2022-10-01T02:39:55.863Z,5.60
2022-10-01T02:40:26.641Z,3.90
2022-10-01T02:40:57.413Z,5.30
2022-10-01T02:41:28.158Z,6.60
2022-10-01T02:41:58.905Z,6.40
2022-10-01T02:42:29.672Z,6.30
2022-10-01T02:43:00.488Z,6.70
2022-10-01T02:43:31.262Z,4.60
2022-10-01T02:44:02.107Z,5.80
2022-10-01T02:44:32.861Z,5.90
2022-10-01T02:45:03.618Z,7.10
2022-10-01T02:45:34.407Z,5.50
2022-10-01T02:46:05.253Z,4.50
2022-10-01T02:46:36.052Z,6.90
2022-10-01T02:47:06.932Z,4.40
2022-10-01T02:47:37.752Z,6.00
2022-10-01T02:48:08.527Z,7.10
2022-10-01T02:48:39.313Z,5.60
2022-10-01T02:49:10.076Z,5.30
2022-10-01T02:49:40.909Z,6.80
2022-10-01T02:50:11.675Z,6.20
2022-10-01T02:50:42.445Z,3.80
2022-10-01T02:51:13.233Z,5.10
2022-10-01T02:51:43.995Z,6.20
2022-10-01T02:52:14.765Z,4.00
2022-10-01T02:52:45.584Z,5.10
2022-10-01T02:53:16.375Z,5.70
2022-10-01T02:53:47.166Z,5.40
2022-10-01T02:54:17.965Z,5.00
2022-10-01T02:54:48.746Z,6.70
2022-10-01T02:55:19.515Z,5.60
2022-10-01T02:55:50.306Z,5.70
2022-10-01T02:56:21.087Z,6.60
2022-10-01T02:56:56.047Z,7.40
2022-10-01T02:57:24.015Z,6.00
2022-10-01T02:57:54.783Z,4.30
2022-10-01T02:58:25.549Z,5.60
2022-10-01T02:58:56.388Z,7.30
2022-10-01T02:59:27.156Z,7.30
2022-10-01T02:59:57.928Z,7.30
2022-10-01T03:00:28.728Z,6.10
2022-10-01T03:00:59.503Z,5.20
2022-10-01T03:01:30.324Z,6.20
2022-10-01T03:02:01.241Z,7.10
2022-10-01T03:02:32.088Z,5.40
2022-10-01T03:03:02.883Z,4.70
2022-10-01T03:03:33.646Z,6.30
2022-10-01T03:04:04.414Z,5.70
2022-10-01T03:04:35.174Z,6.60
2022-10-01T03:05:05.942Z,7.20
2022-10-01T03:05:36.712Z,6.70
2022-10-01T03:06:07.482Z,6.10
2022-10-01T03:06:38.226Z,5.10
2022-10-01T03:07:09.017Z,6.90
2022-10-01T03:07:39.838Z,5.80
2022-10-01T03:08:10.589Z,5.10
2022-10-01T03:08:41.352Z,6.20
2022-10-01T03:09:12.141Z,5.00
2022-10-01T03:09:42.900Z,5.50
2022-10-01T03:10:13.668Z,5.90
2022-10-01T03:10:46.720Z,5.50
2022-10-01T03:11:14.720Z,5.90
2022-10-01T03:11:45.501Z,4.70
2022-10-01T03:12:16.288Z,5.70
2022-10-01T03:12:47.069Z,4.40
2022-10-01T03:13:17.830Z,8.60
2022-10-01T03:13:48.609Z,5.90
2022-10-01T03:14:19.399Z,5.60
2022-10-01T03:14:50.200Z,5.70
2022-10-01T03:15:21.021Z,3.70
2022-10-01T03:15:51.826Z,4.50
2022-10-01T03:16:22.716Z,5.60
2022-10-01T03:16:53.517Z,8.00
2022-10-01T03:17:24.339Z,7.50
2022-10-01T03:17:55.135Z,8.40
2022-10-01T03:18:25.901Z,4.90
2022-10-01T03:18:56.693Z,4.50
2022-10-01T03:19:27.491Z,6.80
2022-10-01T03:19:58.239Z,6.70
2022-10-01T03:20:29.029Z,6.20
2022-10-01T03:20:59.796Z,6.30
2022-10-01T03:21:30.996Z,8.20
2022-10-01T03:22:01.980Z,5.60
2022-10-01T03:22:32.816Z,5.30
2022-10-01T03:23:03.598Z,5.70
2022-10-01T03:23:34.361Z,6.00
2022-10-01T03:24:05.168Z,4.70
2022-10-01T03:24:35.960Z,7.00
2022-10-01T03:25:06.724Z,6.00
2022-10-01T03:25:37.516Z,6.50
2022-10-01T03:26:08.293Z,6.30
2022-10-01T03:26:39.111Z,5.30
2022-10-01T03:27:09.903Z,5.80
2022-10-01T03:27:40.693Z,5.40
2022-10-01T03:28:11.552Z,6.60
2022-10-01T03:28:42.390Z,7.80
2022-10-01T03:29:13.161Z,5.70
2022-10-01T03:29:43.957Z,4.60
2022-10-01T03:30:14.763Z,6.70
2022-10-01T03:30:45.511Z,7.60
2022-10-01T03:31:16.360Z,4.50
2022-10-01T03:31:47.149Z,3.90
2022-10-01T03:32:18.024Z,7.50
2022-10-01T03:32:48.807Z,5.20
2022-10-01T03:33:19.565Z,5.60
2022-10-01T03:33:50.362Z,7.50
2022-10-01T03:34:21.135Z,4.60
2022-10-01T03:34:51.968Z,6.50
2022-10-01T03:35:22.737Z,5.60
2022-10-01T03:35:53.516Z,6.60
2022-10-01T03:36:24.295Z,7.70
2022-10-01T03:36:55.113Z,8.30
2022-10-01T03:37:25.906Z,5.30
2022-10-01T03:37:56.663Z,5.30
2022-10-01T03:38:27.429Z,5.70
2022-10-01T03:38:58.185Z,5.30
2022-10-01T03:39:29.006Z,6.90
2022-10-01T03:39:59.836Z,4.80
2022-10-01T03:40:30.620Z,5.40
2022-10-01T03:41:01.374Z,4.90
2022-10-01T03:41:32.464Z,5.50
2022-10-01T03:42:03.501Z,7.90
2022-10-01T03:42:34.326Z,5.30
2022-10-01T03:43:05.106Z,5.50
2022-10-01T03:43:35.883Z,7.00
2022-10-01T03:44:06.686Z,6.80
2022-10-01T03:44:37.480Z,4.70
2022-10-01T03:45:08.246Z,7.20
2022-10-01T03:45:39.045Z,5.00
2022-10-01T03:46:09.914Z,5.50
2022-10-01T03:46:40.763Z,5.90
2022-10-01T03:47:11.656Z,5.40
2022-10-01T03:47:42.496Z,7.40
2022-10-01T03:48:13.277Z,7.70
2022-10-01T03:48:44.037Z,7.10
2022-10-01T03:49:14.808Z,6.10
2022-10-01T03:49:45.638Z,8.10
2022-10-01T03:50:16.420Z,5.50
2022-10-01T03:50:47.217Z,5.30
2022-10-01T03:51:19.957Z,4.90
2022-10-01T03:51:50.799Z,6.60
2022-10-01T03:52:21.648Z,5.60
2022-10-01T03:52:52.478Z,5.50
2022-10-01T03:53:23.276Z,5.20
2022-10-01T03:53:54.077Z,7.00
2022-10-01T03:54:24.902Z,5.40
2022-10-01T03:54:55.707Z,6.10
2022-10-01T03:55:26.475Z,5.90
2022-10-01T03:55:57.261Z,5.00
2022-10-01T03:56:28.062Z,5.10
2022-10-01T03:56:58.866Z,6.10
2022-10-01T03:57:29.663Z,5.80
2022-10-01T03:58:01.328Z,6.70
2022-10-01T03:58:32.150Z,7.20
2022-10-01T03:59:02.935Z,4.70
2022-10-01T03:59:33.792Z,5.60
2022-10-01T04:00:04.569Z,6.80
2022-10-01T04:00:35.361Z,4.70
2022-10-01T04:01:06.140Z,8.00
2022-10-01T04:01:37.567Z,5.90
2022-10-01T04:02:08.762Z,6.90
2022-10-01T04:02:39.759Z,4.90
2022-10-01T04:03:13.680Z,7.00
2022-10-01T04:03:41.458Z,7.20
2022-10-01T04:04:12.236Z,6.60
2022-10-01T04:07:33.712Z,5.40
2022-10-01T04:08:04.633Z,7.20
2022-10-01T04:08:35.426Z,7.60
2022-10-01T04:09:06.261Z,5.90
2022-10-01T04:09:37.087Z,5.50
2022-10-01T04:10:07.960Z,8.10
2022-10-01T04:10:38.741Z,7.90
2022-10-01T04:11:09.538Z,5.60
2022-10-01T04:11:40.377Z,5.90
2022-10-01T04:12:11.211Z,7.40
2022-10-01T04:12:42.017Z,10.00
2022-10-01T04:13:12.829Z,5.80
2022-10-01T04:13:43.677Z,8.10
2022-10-01T04:14:14.520Z,5.70
2022-10-01T04:14:45.322Z,5.50
2022-10-01T04:15:16.158Z,7.80
2022-10-01T04:15:47.043Z,8.30
2022-10-01T04:16:17.913Z,5.40
2022-10-01T04:16:48.769Z,6.90
2022-10-01T04:17:19.584Z,8.90
2022-10-01T04:17:50.388Z,5.60
2022-10-01T04:18:21.265Z,10.00
2022-10-01T04:18:52.057Z,6.40
2022-10-01T04:19:22.897Z,6.50
2022-10-01T04:19:53.698Z,5.60
2022-10-01T04:20:24.589Z,6.80
2022-10-01T04:20:55.399Z,8.00
2022-10-01T04:21:26.210Z,5.20
2022-10-01T04:21:57.041Z,7.90
2022-10-01T04:22:27.860Z,7.40
2022-10-01T04:22:58.681Z,6.70
2022-10-01T04:23:29.521Z,6.60
2022-10-01T04:24:00.328Z,6.90
2022-10-01T04:24:31.130Z,8.30
2022-10-01T04:25:01.922Z,5.80
2022-10-01T04:25:32.761Z,5.30
2022-10-01T04:26:03.580Z,7.40
2022-10-01T04:26:34.388Z,6.20
2022-10-01T04:27:05.219Z,5.70
2022-10-01T04:27:36.087Z,5.90
2022-10-01T04:28:06.999Z,8.60
2022-10-01T04:28:37.810Z,4.90
2022-10-01T04:29:08.654Z,6.60
2022-10-01T04:29:40.360Z,9.50
2022-10-01T04:30:11.297Z,6.30
2022-10-01T04:30:42.161Z,6.70
2022-10-01T04:31:13.046Z,5.80
2022-10-01T04:31:43.897Z,5.30
2022-10-01T04:32:14.724Z,7.60
2022-10-01T04:32:45.601Z,6.90
2022-10-01T04:33:16.481Z,5.20
2022-10-01T04:33:47.302Z,8.50
2022-10-01T04:34:18.112Z,8.00
2022-10-01T04:34:48.911Z,6.80
2022-10-01T04:35:19.744Z,6.30
2022-10-01T04:35:50.574Z,4.80
2022-10-01T04:36:21.369Z,5.60
2022-10-01T04:36:52.214Z,5.00
2022-10-01T04:37:23.015Z,7.00
2022-10-01T04:37:53.877Z,8.50
2022-10-01T04:38:24.707Z,5.20
2022-10-01T04:38:59.398Z,5.50
2022-10-01T04:39:28.221Z,6.80
2022-10-01T04:39:59.032Z,7.60
2022-10-01T04:40:29.845Z,7.50
2022-10-01T04:41:00.715Z,4.80
2022-10-01T04:41:31.974Z,5.60
2022-10-01T04:42:03.005Z,5.50
2022-10-01T04:42:33.827Z,8.70
2022-10-01T04:43:04.645Z,8.30
2022-10-01T04:43:35.453Z,6.40
2022-10-01T04:44:06.262Z,6.40
2022-10-01T04:44:37.065Z,5.90
2022-10-01T04:45:07.885Z,6.10
2022-10-01T04:45:38.678Z,6.00
2022-10-01T04:46:09.476Z,6.00
2022-10-01T04:46:40.347Z,7.30
2022-10-01T04:47:11.222Z,6.40
2022-10-01T04:47:42.013Z,7.60
2022-10-01T04:48:12.880Z,7.10
2022-10-01T04:48:43.694Z,5.80
2022-10-01T04:49:14.456Z,4.90
2022-10-01T04:49:45.255Z,7.40
2022-10-01T04:50:16.016Z,8.30
2022-10-01T04:50:46.823Z,6.80
2022-10-01T04:51:17.666Z,6.60
2022-10-01T04:51:48.543Z,5.40
2022-10-01T04:52:19.386Z,6.50
2022-10-01T04:52:50.190Z,6.30
2022-10-01T04:53:20.996Z,5.70
2022-10-01T04:53:51.857Z,6.00
2022-10-01T04:54:22.636Z,9.40
2022-10-01T04:54:53.433Z,6.50
2022-10-01T04:55:24.231Z,6.50
2022-10-01T04:55:55.065Z,6.80
2022-10-01T04:56:25.849Z,5.40
2022-10-01T04:56:56.668Z,7.70
2022-10-01T04:57:27.481Z,7.00
2022-10-01T04:57:58.346Z,7.20
2022-10-01T04:58:29.150Z,5.20
2022-10-01T04:58:59.930Z,8.10
2022-10-01T04:59:30.714Z,8.40
2022-10-01T05:00:01.557Z,7.10
2022-10-01T05:00:32.417Z,5.80
2022-10-01T05:01:03.295Z,6.40
2022-10-01T05:01:34.403Z,7.30
2022-10-01T05:02:05.512Z,7.40
2022-10-01T05:02:36.463Z,7.40
2022-10-01T05:03:07.282Z,8.20
2022-10-01T05:03:38.095Z,7.30
2022-10-01T05:04:08.887Z,5.80
2022-10-01T05:04:39.669Z,8.80
2022-10-01T05:05:10.438Z,7.90
2022-10-01T05:05:41.217Z,7.80
2022-10-01T05:06:12.022Z,6.50
2022-10-01T05:06:42.823Z,7.80
2022-10-01T05:07:13.609Z,6.60
2022-10-01T05:07:44.401Z,9.10
2022-10-01T05:08:15.213Z,7.80
2022-10-01T05:08:45.999Z,7.20
2022-10-01T05:09:16.827Z,7.50
2022-10-01T05:09:47.610Z,5.80
2022-10-01T05:10:18.428Z,7.90
2022-10-01T05:10:49.268Z,7.10
2022-10-01T05:11:20.057Z,7.30
2022-10-01T05:11:50.830Z,7.40
2022-10-01T05:12:24.554Z,7.70
2022-10-01T05:12:52.439Z,7.10
2022-10-01T05:13:23.263Z,7.30
2022-10-01T05:13:54.080Z,9.90
2022-10-01T05:14:24.843Z,7.40
2022-10-01T05:14:55.642Z,7.90
2022-10-01T05:15:26.432Z,10.70
2022-10-01T05:15:57.316Z,9.40
2022-10-01T05:16:28.210Z,8.20
2022-10-01T05:16:59.015Z,8.20
2022-10-01T05:17:29.821Z,9.30
2022-10-01T05:18:00.611Z,8.60
2022-10-01T05:18:31.421Z,8.50
2022-10-01T05:19:02.212Z,7.70
2022-10-01T05:19:32.987Z,9.40
2022-10-01T05:20:03.733Z,8.90
2022-10-01T05:20:34.513Z,9.10
2022-10-01T05:21:05.331Z,10.80
2022-10-01T05:21:36.482Z,10.60
2022-10-01T05:22:07.384Z,8.50
2022-10-01T05:22:38.182Z,8.10
2022-10-01T05:23:08.934Z,8.00
2022-10-01T05:23:39.756Z,8.30
2022-10-01T05:24:10.566Z,8.90
2022-10-01T05:24:41.339Z,9.30
2022-10-01T05:25:12.140Z,8.70
2022-10-01T05:25:42.962Z,7.80
2022-10-01T05:26:13.753Z,9.80
2022-10-01T05:26:44.556Z,9.10
2022-10-01T05:27:15.322Z,9.70
2022-10-01T05:27:46.203Z,8.90
2022-10-01T05:28:21.302Z,9.80
2022-10-01T05:28:49.680Z,9.60
2022-10-01T05:29:20.453Z,8.40
2022-10-01T05:29:51.251Z,7.90
2022-10-01T05:30:22.054Z,8.10
2022-10-01T05:30:52.840Z,8.60
2022-10-01T05:31:23.643Z,7.90
2022-10-01T05:31:54.484Z,11.40
2022-10-01T05:32:25.375Z,9.70
2022-10-01T05:32:56.137Z,10.20
2022-10-01T05:33:26.924Z,9.30
2022-10-01T05:33:57.739Z,7.50
2022-10-01T05:34:28.514Z,12.10
2022-10-01T05:34:59.304Z,10.40
2022-10-01T05:35:30.081Z,11.10
2022-10-01T05:36:00.906Z,8.90
2022-10-01T05:36:31.721Z,7.50
2022-10-01T05:37:02.526Z,9.70
2022-10-01T05:37:33.328Z,11.90
2022-10-01T05:38:04.096Z,7.90
2022-10-01T05:38:34.922Z,11.00
2022-10-01T05:39:05.715Z,9.40
2022-10-01T05:39:36.506Z,11.30
2022-10-01T05:40:07.295Z,9.70
2022-10-01T05:40:38.086Z,9.80
2022-10-01T05:41:08.905Z,12.60
2022-10-01T05:41:39.799Z,9.20
2022-10-01T05:42:10.650Z,8.10
2022-10-01T05:42:41.488Z,9.70
2022-10-01T05:43:12.347Z,8.90
2022-10-01T05:43:43.183Z,8.20
2022-10-01T05:44:14.034Z,11.40
2022-10-01T05:44:44.857Z,10.00
2022-10-01T05:45:15.722Z,9.20
2022-10-01T05:45:46.582Z,12.90
2022-10-01T05:46:17.452Z,9.40
2022-10-01T05:46:48.266Z,9.30
2022-10-01T05:47:19.087Z,11.90
2022-10-01T05:47:49.853Z,10.50
2022-10-01T05:48:20.686Z,8.20
2022-10-01T05:48:51.594Z,7.90
2022-10-01T05:49:22.418Z,8.90
2022-10-01T05:49:53.237Z,9.50
2022-10-01T05:50:24.136Z,10.10
2022-10-01T05:50:54.911Z,10.00
2022-10-01T05:51:25.773Z,11.20
2022-10-01T05:51:56.577Z,10.40
2022-10-01T05:52:27.380Z,9.20
2022-10-01T05:52:58.198Z,7.40
2022-10-01T05:53:29.058Z,8.10
2022-10-01T05:54:00.049Z,10.30
2022-10-01T05:54:30.879Z,7.30
2022-10-01T05:55:01.697Z,8.80
2022-10-01T05:55:32.570Z,10.40
2022-10-01T05:56:03.386Z,8.90
2022-10-01T05:56:34.189Z,9.10
2022-10-01T05:57:05.082Z,9.60
2022-10-01T05:57:35.951Z,7.90
2022-10-01T05:58:06.905Z,9.40
2022-10-01T05:58:37.759Z,9.50
2022-10-01T05:59:08.633Z,9.00
2022-10-01T05:59:39.563Z,8.20
2022-10-01T06:00:10.642Z,8.50
2022-10-01T06:00:41.431Z,10.80
2022-10-01T06:01:12.447Z,9.80
2022-10-01T06:01:43.334Z,8.70
2022-10-01T06:02:14.321Z,9.50
2022-10-01T06:02:45.273Z,11.20
2022-10-01T06:03:16.267Z,8.60
2022-10-01T06:03:47.179Z,8.50
2022-10-01T06:04:18.161Z,10.80
2022-10-01T06:04:49.001Z,7.70
2022-10-01T06:05:19.852Z,7.10
2022-10-01T06:05:50.683Z,14.80
2022-10-01T06:06:21.530Z,10.50
2022-10-01T06:06:52.378Z,7.20
2022-10-01T06:07:23.173Z,9.60
2022-10-01T06:07:54.062Z,8.70
2022-10-01T06:08:24.871Z,10.40
2022-10-01T06:08:55.733Z,10.90
2022-10-01T06:09:26.679Z,7.70
2022-10-01T06:09:57.627Z,7.90
2022-10-01T06:10:28.423Z,7.50
2022-10-01T06:10:59.252Z,6.80
2022-10-01T06:11:30.120Z,10.00
2022-10-01T06:12:00.978Z,7.40
2022-10-01T06:12:31.883Z,10.40
2022-10-01T06:13:02.743Z,9.20
2022-10-01T06:13:33.553Z,9.40
2022-10-01T06:14:04.429Z,8.80
2022-10-01T06:14:35.270Z,10.10
2022-10-01T06:15:06.074Z,10.20
2022-10-01T06:15:36.896Z,9.70
2022-10-01T06:16:07.881Z,8.10
2022-10-01T06:16:38.750Z,7.90
2022-10-01T06:17:09.685Z,11.60
2022-10-01T06:17:40.574Z,10.90
2022-10-01T06:18:11.383Z,9.90
2022-10-01T06:18:42.222Z,8.10
2022-10-01T06:19:13.095Z,9.10
2022-10-01T06:19:43.967Z,7.20
2022-10-01T06:20:14.804Z,11.00
2022-10-01T06:20:45.634Z,9.00
2022-10-01T06:21:16.468Z,8.60
2022-10-01T06:21:47.370Z,8.60
2022-10-01T06:22:18.167Z,10.50
2022-10-01T06:22:49.076Z,11.50
2022-10-01T06:23:19.925Z,9.40
2022-10-01T06:23:50.721Z,9.20
2022-10-01T06:24:21.547Z,8.80
2022-10-01T06:24:56.060Z,7.90
2022-10-01T06:25:24.469Z,9.10
2022-10-01T06:25:55.458Z,11.00
2022-10-01T06:26:26.263Z,9.90
2022-10-01T06:26:57.052Z,10.20
2022-10-01T06:27:27.897Z,9.90
2022-10-01T06:27:58.858Z,11.20
2022-10-01T06:28:29.875Z,8.30
2022-10-01T06:29:00.721Z,7.00
2022-10-01T06:29:31.602Z,8.80
2022-10-01T06:30:02.603Z,10.20
2022-10-01T06:30:33.672Z,8.10
2022-10-01T06:31:04.791Z,10.70
2022-10-01T06:31:36.314Z,8.70
2022-10-01T06:32:07.426Z,8.10
2022-10-01T06:32:38.339Z,11.50
2022-10-01T06:33:09.219Z,12.00
2022-10-01T06:33:40.073Z,9.60
2022-10-01T06:34:11.146Z,10.00
2022-10-01T06:34:42.048Z,7.90
2022-10-01T06:35:12.875Z,9.80
2022-10-01T06:35:43.727Z,10.80
2022-10-01T06:36:14.578Z,12.00
2022-10-01T06:36:45.401Z,13.50
2022-10-01T06:37:16.221Z,11.30
2022-10-01T06:37:47.120Z,8.70
2022-10-01T06:38:17.929Z,10.40
2022-10-01T06:38:48.805Z,10.60
2022-10-01T06:39:19.679Z,11.60
2022-10-01T06:39:50.509Z,8.00
2022-10-01T06:40:21.530Z,9.30
2022-10-01T06:40:52.394Z,11.30
2022-10-01T06:41:23.354Z,10.70
2022-10-01T06:41:54.215Z,12.80
2022-10-01T06:42:25.016Z,10.30
2022-10-01T06:42:56.914Z,13.10
2022-10-01T06:43:27.820Z,9.10
2022-10-01T06:43:58.655Z,9.30
2022-10-01T06:44:29.593Z,9.70
2022-10-01T06:45:00.417Z,8.10
2022-10-01T06:45:31.357Z,9.80
2022-10-01T06:46:02.329Z,11.00
2022-10-01T06:46:33.187Z,8.50
2022-10-01T06:47:04.386Z,10.70
2022-10-01T06:47:35.284Z,10.90
2022-10-01T06:48:06.105Z,10.10
2022-10-01T06:48:37.023Z,8.90
2022-10-01T06:49:07.883Z,9.20
2022-10-01T06:49:38.711Z,11.50
2022-10-01T06:50:09.675Z,10.30
2022-10-01T06:50:40.857Z,8.60
2022-10-01T06:51:11.787Z,11.10